createdAt,value
2023-04-21T00:01:26.186Z,101574.06
2023-04-21T00:03:52.804Z,101568.41
2023-04-21T00:06:22.683Z,101574.56
2023-04-21T00:08:50.393Z,101565.69
2023-04-21T00:11:17.207Z,101573.22
2023-04-21T00:13:43.789Z,101564.50
2023-04-21T00:16:10.416Z,101561.47
2023-04-21T00:18:37.031Z,101566.22
2023-04-21T00:21:03.541Z,101560.69
2023-04-21T00:23:29.949Z,101562.59
2023-04-21T00:25:56.529Z,101568.69
2023-04-21T00:28:23.935Z,101561.47
2023-04-21T00:30:50.399Z,101559.50
2023-04-21T00:33:16.841Z,101569.28
2023-04-21T00:35:43.277Z,101562.81
2023-04-21T00:38:09.719Z,101563.69
2023-04-21T00:40:36.138Z,101565.00
2023-04-21T00:43:07.573Z,101562.41
2023-04-21T00:45:34.109Z,101556.81
2023-04-21T00:48:03.593Z,101556.53
2023-04-21T00:50:30.114Z,101563.00
2023-04-21T00:52:57.342Z,101561.47
2023-04-21T00:55:24.636Z,101557.91
2023-04-21T00:57:52.334Z,101559.50
2023-04-21T01:00:19.009Z,101555.88
2023-04-21T01:02:45.715Z,101554.22
2023-04-21T01:05:16.366Z,101558.94
2023-04-21T01:07:42.869Z,101551.41
2023-04-21T01:10:09.575Z,101547.81
2023-04-21T01:12:45.876Z,101553.59
2023-04-21T01:15:14.289Z,101547.44
2023-04-21T01:17:41.674Z,101546.75
2023-04-21T01:20:11.369Z,101547.63
2023-04-21T01:22:38.655Z,101547.31
2023-04-21T01:25:05.837Z,101543.50
2023-04-21T01:27:32.261Z,101551.38
2023-04-21T01:29:59.421Z,101534.06
2023-04-21T01:32:29.512Z,101536.28
2023-04-21T01:34:57.731Z,101548.13
2023-04-21T01:37:27.678Z,101541.44
2023-04-21T01:39:56.282Z,101535.78
2023-04-21T01:42:25.096Z,101531.63
2023-04-21T01:44:53.667Z,101537.00
2023-04-21T01:47:20.599Z,101538.84
2023-04-21T01:49:47.677Z,101531.56
2023-04-21T01:52:14.137Z,101533.88
2023-04-21T01:54:40.578Z,101531.13
2023-04-21T01:57:07.400Z,101531.78
2023-04-21T01:59:33.902Z,101533.47
2023-04-21T02:02:02.155Z,101527.00
2023-04-21T02:04:28.730Z,101520.22
2023-04-21T02:06:55.376Z,101525.81
2023-04-21T02:09:22.037Z,101534.53
2023-04-21T02:11:48.599Z,101532.25
2023-04-21T02:14:16.726Z,101522.78
2023-04-21T02:16:43.271Z,101520.28
2023-04-21T02:19:09.799Z,101522.28
2023-04-21T02:21:36.245Z,101523.13
2023-04-21T02:24:02.735Z,101517.81
2023-04-21T02:26:29.147Z,101517.81
2023-04-21T02:28:55.549Z,101517.81
2023-04-21T02:31:21.980Z,101521.16
2023-04-21T02:33:48.494Z,101519.97
2023-04-21T02:36:15.005Z,101519.44
2023-04-21T02:38:41.409Z,101515.50
2023-04-21T02:41:09.827Z,101524.16
2023-04-21T02:43:36.250Z,101519.97
2023-04-21T02:46:07.474Z,101520.47
2023-04-21T02:48:35.325Z,101517.63
2023-04-21T02:51:01.763Z,101516.50
2023-04-21T02:53:28.222Z,101518.56
2023-04-21T02:55:54.633Z,101515.88
2023-04-21T02:58:21.078Z,101511.44
2023-04-21T03:00:47.622Z,101518.09
2023-04-21T03:03:15.924Z,101519.41
2023-04-21T03:05:42.570Z,101520.72
2023-04-21T03:08:09.011Z,101521.53
2023-04-21T03:10:37.277Z,101515.56
2023-04-21T03:13:03.880Z,101515.38
2023-04-21T03:15:31.822Z,101520.25
2023-04-21T03:18:00.470Z,101510.91
2023-04-21T03:20:26.924Z,101517.47
2023-04-21T03:22:54.238Z,101514.16
2023-04-21T03:25:20.718Z,101511.88
2023-04-21T03:27:47.153Z,101512.41
2023-04-21T03:30:13.561Z,101511.94
2023-04-21T03:32:40.050Z,101517.28
2023-04-21T03:35:06.546Z,101513.31
2023-04-21T03:37:33.959Z,101518.13
2023-04-21T03:40:01.052Z,101514.44
2023-04-21T03:42:27.758Z,101521.06
2023-04-21T03:44:56.430Z,101524.03
2023-04-21T03:47:22.913Z,101522.84
2023-04-21T03:49:49.366Z,101512.38
2023-04-21T03:52:15.773Z,101525.38
2023-04-21T03:54:42.167Z,101518.06
2023-04-21T03:57:08.569Z,101524.41
2023-04-21T03:59:34.974Z,101518.66
2023-04-21T04:02:01.469Z,101520.28
2023-04-21T04:04:28.082Z,101526.53
2023-04-21T04:06:54.750Z,101524.38
2023-04-21T04:09:21.313Z,101533.22
2023-04-21T04:11:47.822Z,101528.94
2023-04-21T04:14:14.309Z,101527.41
2023-04-21T04:16:41.469Z,101533.50
2023-04-21T04:19:08.393Z,101533.69
2023-04-21T04:21:34.854Z,101540.34
2023-04-21T04:24:02.367Z,101537.22
2023-04-21T04:26:29.360Z,101536.91
2023-04-21T04:28:56.477Z,101543.81
2023-04-21T04:31:25.471Z,101532.06
2023-04-21T04:33:54.922Z,101533.50
2023-04-21T04:36:22.460Z,101534.53
2023-04-21T04:38:48.867Z,101529.50
2023-04-21T04:41:16.655Z,101535.19
2023-04-21T04:43:43.932Z,101540.25
2023-04-21T04:46:13.043Z,101537.31
2023-04-21T04:48:39.861Z,101535.47
2023-04-21T04:51:06.254Z,101540.53
2023-04-21T04:53:32.875Z,101541.59
2023-04-21T04:55:59.481Z,101537.31
2023-04-21T04:58:26.015Z,101536.63
2023-04-21T05:00:52.448Z,101530.19
2023-04-21T05:03:18.962Z,101537.38
2023-04-21T05:05:46.290Z,101532.00
2023-04-21T05:08:13.154Z,101536.31
2023-04-21T05:10:39.837Z,101538.28
2023-04-21T05:13:06.751Z,101532.16
2023-04-21T05:15:33.194Z,101536.97
2023-04-21T05:17:59.647Z,101541.09
2023-04-21T05:20:26.109Z,101534.63
2023-04-21T05:22:52.501Z,101535.97
2023-04-21T05:25:18.918Z,101534.44
2023-04-21T05:27:45.541Z,101528.94
2023-04-21T05:30:11.939Z,101535.25
2023-04-21T05:32:38.509Z,101539.78
2023-04-21T05:35:05.308Z,101536.22
2023-04-21T05:37:31.725Z,101538.22
2023-04-21T05:39:58.207Z,101533.19
2023-04-21T05:42:24.626Z,101529.81
2023-04-21T05:44:51.133Z,101535.47
2023-04-21T05:47:17.536Z,101535.75
2023-04-21T05:49:50.224Z,101539.69
2023-04-21T05:52:17.669Z,101534.91
2023-04-21T05:54:44.272Z,101530.16
2023-04-21T05:57:10.824Z,101533.53
2023-04-21T05:59:37.234Z,101533.22
2023-04-21T06:02:04.021Z,101534.31
2023-04-21T06:04:30.966Z,101537.38
2023-04-21T06:06:57.546Z,101535.13
2023-04-21T06:09:23.943Z,101532.31
2023-04-21T06:11:50.751Z,101529.19
2023-04-21T06:14:17.478Z,101531.97
2023-04-21T06:16:44.242Z,101529.13
2023-04-21T06:19:10.750Z,101530.69
2023-04-21T06:21:37.174Z,101521.28
2023-04-21T06:24:03.722Z,101524.38
2023-04-21T06:26:30.305Z,101519.31
2023-04-21T06:28:56.718Z,101525.88
2023-04-21T06:31:23.177Z,101519.00
2023-04-21T06:33:49.587Z,101512.59
2023-04-21T06:36:17.822Z,101511.63
2023-04-21T06:38:44.602Z,101510.88
2023-04-21T06:41:11.041Z,101511.72
2023-04-21T06:43:37.837Z,101511.59
2023-04-21T06:46:04.242Z,101514.94
2023-04-21T06:48:30.973Z,101511.03
2023-04-21T06:50:57.413Z,101506.16
2023-04-21T06:53:23.840Z,101506.09
2023-04-21T06:55:50.303Z,101506.31
2023-04-21T06:58:17.954Z,101507.41
2023-04-21T07:00:45.602Z,101500.47
2023-04-21T07:03:12.785Z,101504.41
2023-04-21T07:05:39.302Z,101505.06
2023-04-21T07:08:05.762Z,101502.09
2023-04-21T07:10:32.215Z,101505.66
2023-04-21T07:12:58.726Z,101504.38
2023-04-21T07:15:25.151Z,101503.69
2023-04-21T07:17:51.919Z,101500.41
2023-04-21T07:20:18.923Z,101503.28
2023-04-21T07:22:45.434Z,101501.06
2023-04-21T07:25:12.464Z,101500.34
2023-04-21T07:27:38.954Z,101495.34
2023-04-21T07:30:06.507Z,101503.69
2023-04-21T07:32:33.782Z,101501.22
2023-04-21T07:35:01.861Z,101501.84
2023-04-21T07:37:28.424Z,101499.47
2023-04-21T07:39:54.832Z,101501.41
2023-04-21T07:42:21.275Z,101498.63
2023-04-21T07:44:48.833Z,101495.28
2023-04-21T07:47:15.436Z,101489.66
2023-04-21T07:49:41.913Z,101495.47
2023-04-21T07:52:08.759Z,101490.47
2023-04-21T07:54:35.289Z,101485.53
2023-04-21T07:57:02.592Z,101485.63
2023-04-21T07:59:29.113Z,101483.56
2023-04-21T08:01:55.617Z,101487.31
2023-04-21T08:04:22.353Z,101482.03
2023-04-21T08:06:49.062Z,101486.16
2023-04-21T08:09:15.693Z,101482.81
2023-04-21T08:11:42.105Z,101488.50
2023-04-21T08:14:11.753Z,101480.03
2023-04-21T08:16:38.898Z,101487.28
2023-04-21T08:19:05.902Z,101482.69
2023-04-21T08:21:33.407Z,101475.19
2023-04-21T08:24:00.286Z,101483.69
2023-04-21T08:26:27.417Z,101483.69
2023-04-21T08:28:54.190Z,101474.53
2023-04-21T08:31:20.806Z,101480.75
2023-04-21T08:34:00.613Z,101484.75
2023-04-21T08:36:30.198Z,101475.38
2023-04-21T08:38:57.328Z,101469.94
2023-04-21T08:41:24.845Z,101475.78
2023-04-21T08:43:51.375Z,101478.66
2023-04-21T08:46:19.404Z,101469.00
2023-04-21T08:48:47.260Z,101472.28
2023-04-21T08:51:21.629Z,101468.06
2023-04-21T08:53:48.077Z,101467.47
2023-04-21T08:56:14.946Z,101461.75
2023-04-21T08:58:41.737Z,101458.50
2023-04-21T09:01:08.297Z,101463.88
2023-04-21T09:03:34.881Z,101462.00
2023-04-21T09:06:06.363Z,101465.16
2023-04-21T09:08:34.599Z,101467.44
2023-04-21T09:11:01.613Z,101462.75
2023-04-21T09:13:36.477Z,101466.72
2023-04-21T09:16:08.181Z,101461.78
2023-04-21T09:18:37.361Z,101453.22
2023-04-21T09:21:12.586Z,101454.41
2023-04-21T09:23:52.478Z,101449.28
2023-04-21T09:26:22.557Z,101457.78
2023-04-21T09:28:50.724Z,101453.78
2023-04-21T09:31:21.794Z,101449.44
2023-04-21T09:36:30.541Z,101443.44
2023-04-21T09:39:24.461Z,101440.94
2023-04-21T09:41:46.025Z,101442.28
2023-04-21T09:44:12.499Z,101442.91
2023-04-21T09:46:43.577Z,101433.06
2023-04-21T09:49:12.285Z,101442.91
2023-04-21T09:52:05.843Z,101441.25
2023-04-21T09:54:30.624Z,101439.97
2023-04-21T09:57:02.715Z,101439.63
2023-04-21T09:59:37.721Z,101430.63
2023-04-21T10:02:06.184Z,101436.44
2023-04-21T10:04:34.167Z,101432.13
2023-04-21T10:07:01.637Z,101432.47
2023-04-21T10:09:34.972Z,101436.34
2023-04-21T10:12:02.931Z,101430.81
2023-04-21T10:14:29.320Z,101427.63
2023-04-21T10:17:06.733Z,101422.75
2023-04-21T10:19:41.598Z,101419.09
2023-04-21T10:22:09.657Z,101416.25
2023-04-21T10:24:41.029Z,101407.94
2023-04-21T10:27:12.096Z,101409.91
2023-04-21T10:29:52.476Z,101412.25
2023-04-21T10:32:42.273Z,101412.25
2023-04-21T10:35:17.784Z,101406.06
2023-04-21T10:37:48.929Z,101404.41
2023-04-21T10:40:43.228Z,101405.25
2023-04-21T10:43:43.380Z,101401.72
2023-04-21T10:46:39.255Z,101403.22
2023-04-21T10:49:10.215Z,101392.53
2023-04-21T10:52:08.058Z,101393.06
2023-04-21T10:54:49.851Z,101390.34
2023-04-21T10:57:18.527Z,101382.69
2023-04-21T10:59:46.139Z,101381.13
2023-04-21T11:02:15.492Z,101376.13
2023-04-21T11:04:48.366Z,101372.13
2023-04-21T11:07:17.502Z,101371.97
2023-04-21T11:09:45.654Z,101367.88
2023-04-21T11:12:14.298Z,101368.47
2023-04-21T11:14:44.390Z,101354.34
2023-04-21T11:17:12.832Z,101359.16
2023-04-21T11:19:39.809Z,101356.66
2023-04-21T11:22:06.338Z,101361.59
2023-04-21T11:24:33.070Z,101340.50
2023-04-21T11:27:03.185Z,101347.16
2023-04-21T11:29:29.777Z,101341.91
2023-04-21T11:31:56.245Z,101345.69
2023-04-21T11:34:24.980Z,101343.13
2023-04-21T11:36:52.562Z,101345.50
2023-04-21T11:39:21.811Z,101336.09
2023-04-21T11:41:50.276Z,101342.94
2023-04-21T11:44:43.118Z,101331.78
2023-04-21T11:47:20.214Z,101330.44
2023-04-21T11:49:56.051Z,101335.63
2023-04-21T11:52:26.132Z,101322.59
2023-04-21T11:55:06.213Z,101332.44
2023-04-21T11:57:33.832Z,101339.66
2023-04-21T12:00:01.592Z,101334.16
2023-04-21T12:02:32.339Z,101327.88
2023-04-21T12:05:02.076Z,101329.53
2023-04-21T12:07:33.145Z,101324.97
2023-04-21T12:10:00.390Z,101316.09
2023-04-21T12:12:27.256Z,101318.28
2023-04-21T12:14:53.918Z,101330.81
2023-04-21T12:17:20.649Z,101323.28
2023-04-21T12:19:47.400Z,101324.00
2023-04-21T12:22:15.803Z,101311.63
2023-04-21T12:24:43.039Z,101313.31
2023-04-21T12:27:10.203Z,101305.44
2023-04-21T12:29:37.832Z,101298.25
2023-04-21T12:32:05.637Z,101301.91
2023-04-21T12:34:32.351Z,101306.59
2023-04-21T12:39:25.316Z,101299.41
2023-04-21T12:41:51.817Z,101298.72
2023-04-21T12:44:18.270Z,101297.44
2023-04-21T12:46:44.858Z,101287.72
2023-04-21T12:49:11.632Z,101283.53
2023-04-21T12:51:38.104Z,101282.25
2023-04-21T12:54:04.582Z,101280.72
2023-04-21T12:56:31.398Z,101287.09
2023-04-21T12:58:58.311Z,101277.13
2023-04-21T13:01:24.942Z,101279.63
2023-04-21T13:03:51.571Z,101274.59
2023-04-21T13:06:18.195Z,101273.72
2023-04-21T13:08:44.627Z,101283.00
2023-04-21T13:11:11.064Z,101271.16
2023-04-21T13:13:37.673Z,101268.84
2023-04-21T13:16:04.812Z,101273.63
2023-04-21T13:18:31.275Z,101257.03
2023-04-21T13:20:57.718Z,101258.03
2023-04-21T13:23:24.173Z,101262.41
2023-04-21T13:25:50.942Z,101255.56
2023-04-21T13:28:17.656Z,101259.19
2023-04-21T13:30:44.688Z,101253.03
2023-04-21T13:33:11.767Z,101250.38
2023-04-21T13:35:38.579Z,101245.75
2023-04-21T13:38:05.819Z,101241.44
2023-04-21T13:40:32.289Z,101237.91
2023-04-21T13:42:59.397Z,101239.16
2023-04-21T13:45:26.483Z,101227.09
2023-04-21T13:47:52.984Z,101229.78
2023-04-21T13:50:19.664Z,101228.00
2023-04-21T13:52:46.116Z,101215.09
2023-04-21T13:55:12.781Z,101210.09
2023-04-21T13:57:39.256Z,101213.25
2023-04-21T14:00:06.544Z,101205.78
2023-04-21T14:02:33.311Z,101210.28
2023-04-21T14:05:00.064Z,101205.69
2023-04-21T14:07:26.927Z,101212.94
2023-04-21T14:09:53.353Z,101210.09
2023-04-21T14:12:19.769Z,101194.19
2023-04-21T14:14:46.277Z,101183.16
2023-04-21T14:17:12.951Z,101182.59
2023-04-21T14:19:39.427Z,101175.94
2023-04-21T14:22:05.871Z,101180.09
2023-04-21T14:24:32.341Z,101183.78
2023-04-21T14:26:59.222Z,101181.19
2023-04-21T14:29:25.862Z,101175.00
2023-04-21T14:31:53.817Z,101167.50
2023-04-21T14:34:20.273Z,101171.44
2023-04-21T14:36:49.912Z,101160.81
2023-04-21T14:39:16.735Z,101152.97
2023-04-21T14:41:43.195Z,101159.19
2023-04-21T14:44:09.652Z,101147.94
2023-04-21T14:46:36.580Z,101152.09
2023-04-21T14:49:03.981Z,101145.66
2023-04-21T14:51:31.924Z,101146.34
2023-04-21T14:53:58.481Z,101137.41
2023-04-21T14:56:24.941Z,101135.59
2023-04-21T14:58:51.454Z,101135.72
2023-04-21T15:01:18.041Z,101134.94
2023-04-21T15:03:44.667Z,101130.72
2023-04-21T15:06:11.356Z,101118.09
2023-04-21T15:08:38.022Z,101129.22
2023-04-21T15:11:05.287Z,101120.94
2023-04-21T15:13:32.877Z,101122.63
2023-04-21T15:15:59.333Z,101117.06
2023-04-21T15:18:25.767Z,101120.03
2023-04-21T15:20:52.167Z,101123.22
2023-04-21T15:23:18.565Z,101108.50
2023-04-21T15:25:45.022Z,101107.03
2023-04-21T15:28:12.916Z,101104.44
2023-04-21T15:30:39.355Z,101109.53
2023-04-21T15:33:06.025Z,101097.13
2023-04-21T15:35:32.510Z,101102.03
2023-04-21T15:37:59.058Z,101097.94
2023-04-21T15:40:25.632Z,101091.78
2023-04-21T15:42:52.092Z,101084.44
2023-04-21T15:45:18.641Z,101087.19
2023-04-21T15:47:45.398Z,101089.69
2023-04-21T15:50:11.882Z,101085.69
2023-04-21T15:52:42.531Z,101083.16
2023-04-21T15:55:11.718Z,101089.22
2023-04-21T15:57:38.405Z,101082.16
2023-04-21T16:00:05.675Z,101080.75
2023-04-21T16:02:32.341Z,101080.31
2023-04-21T16:04:59.018Z,101073.84
2023-04-21T16:07:26.664Z,101076.34
2023-04-21T16:09:53.115Z,101074.59
2023-04-21T16:12:19.635Z,101070.84
2023-04-21T16:14:56.090Z,101070.38
2023-04-21T16:17:28.041Z,101063.34
2023-04-21T16:19:54.627Z,101064.28
2023-04-21T16:22:21.066Z,101059.09
2023-04-21T16:24:48.430Z,101066.31
2023-04-21T16:27:15.469Z,101055.63
2023-04-21T16:29:41.935Z,101056.66
2023-04-21T16:32:08.475Z,101058.97
2023-04-21T16:34:35.163Z,101051.66
2023-04-21T16:37:01.680Z,101050.97
2023-04-21T16:39:28.103Z,101052.56
2023-04-21T16:41:54.526Z,101056.41
2023-04-21T16:44:21.013Z,101052.22
2023-04-21T16:46:47.494Z,101051.06
2023-04-21T16:49:14.022Z,101050.91
2023-04-21T16:51:44.552Z,101050.88
2023-04-21T16:54:13.964Z,101049.94
2023-04-21T16:56:40.355Z,101042.75
2023-04-21T16:59:06.837Z,101038.25
2023-04-21T17:01:33.301Z,101044.63
2023-04-21T17:04:00.008Z,101046.47
2023-04-21T17:06:26.601Z,101042.13
2023-04-21T17:08:59.449Z,101041.97
2023-04-21T17:11:27.433Z,101041.00
2023-04-21T17:13:53.881Z,101043.66
2023-04-21T17:16:20.387Z,101042.19
2023-04-21T17:18:46.895Z,101040.31
2023-04-21T17:21:13.291Z,101042.69
2023-04-21T17:23:39.690Z,101034.63
2023-04-21T17:26:06.443Z,101039.50
2023-04-21T17:28:33.493Z,101038.72
2023-04-21T17:31:13.819Z,101038.88
2023-04-21T17:33:41.497Z,101036.88
2023-04-21T17:36:08.154Z,101039.06
2023-04-21T17:38:34.683Z,101039.06
2023-04-21T17:41:02.025Z,101038.91
2023-04-21T17:43:28.615Z,101041.41
2023-04-21T17:45:55.136Z,101038.91
2023-04-21T17:48:21.605Z,101029.72
2023-04-21T17:50:48.034Z,101036.91
2023-04-21T17:53:14.468Z,101035.41
2023-04-21T17:55:40.933Z,101041.03
2023-04-21T17:58:10.055Z,101041.50
2023-04-21T18:00:38.122Z,101040.69
2023-04-21T18:03:04.878Z,101032.53
2023-04-21T18:05:31.522Z,101035.84
2023-04-21T18:07:58.233Z,101035.97
2023-04-21T18:10:25.855Z,101040.81
2023-04-21T18:12:53.352Z,101041.81
2023-04-21T18:15:19.938Z,101041.47
2023-04-21T18:17:46.417Z,101043.13
2023-04-21T18:20:14.836Z,101046.63
2023-04-21T18:22:44.539Z,101042.94
2023-04-21T18:25:14.323Z,101044.25
2023-04-21T18:27:40.900Z,101043.22
2023-04-21T18:30:11.494Z,101041.38
2023-04-21T18:32:38.622Z,101046.00
2023-04-21T18:35:06.368Z,101044.16
2023-04-21T18:37:33.069Z,101037.00
2023-04-21T18:39:59.888Z,101041.25
2023-04-21T18:42:26.812Z,101045.25
2023-04-21T18:44:58.108Z,101043.69
2023-04-21T18:47:25.213Z,101043.22
2023-04-21T18:49:52.555Z,101035.84
2023-04-21T18:52:18.993Z,101043.00
2023-04-21T18:54:45.407Z,101041.22
2023-04-21T18:57:11.907Z,101034.66
2023-04-21T18:59:38.329Z,101029.47
2023-04-21T19:02:06.032Z,101034.81
2023-04-21T19:04:32.630Z,101034.75
2023-04-21T19:06:59.046Z,101035.59
2023-04-21T19:09:27.163Z,101031.56
2023-04-21T19:11:53.707Z,101028.03
2023-04-21T19:14:20.111Z,101040.75
2023-04-21T19:16:48.632Z,101039.84
2023-04-21T19:19:15.354Z,101033.81
2023-04-21T19:21:41.747Z,101035.16
2023-04-21T19:24:08.153Z,101033.59
2023-04-21T19:26:34.554Z,101036.44
2023-04-21T19:29:00.958Z,101034.25
2023-04-21T19:31:27.436Z,101025.47
2023-04-21T19:33:53.841Z,101035.28
2023-04-21T19:36:20.486Z,101030.00
2023-04-21T19:38:47.210Z,101040.16
2023-04-21T19:41:13.620Z,101035.88
2023-04-21T19:43:40.058Z,101033.03
2023-04-21T19:46:06.900Z,101031.47
2023-04-21T19:48:33.544Z,101032.75
2023-04-21T19:50:59.956Z,101032.75
2023-04-21T19:53:26.384Z,101032.31
2023-04-21T19:55:53.003Z,101030.13
2023-04-21T19:58:32.605Z,101036.50
2023-04-21T20:01:06.017Z,101043.53
2023-04-21T20:03:33.246Z,101036.66
2023-04-21T20:06:00.105Z,101040.22
2023-04-21T20:08:26.506Z,101042.81
2023-04-21T20:10:52.952Z,101035.81
2023-04-21T20:13:19.375Z,101039.81
2023-04-21T20:15:45.874Z,101049.94
2023-04-21T20:18:12.929Z,101039.94
2023-04-21T20:20:40.477Z,101046.22
2023-04-21T20:23:06.907Z,101041.19
2023-04-21T20:25:33.376Z,101038.19
2023-04-21T20:27:59.780Z,101043.19
2023-04-21T20:30:26.177Z,101039.53
2023-04-21T20:32:52.810Z,101037.66
2023-04-21T20:35:19.285Z,101031.28
2023-04-21T20:37:45.752Z,101048.97
2023-04-21T20:40:13.012Z,101044.34
2023-04-21T20:42:39.425Z,101040.31
2023-04-21T20:45:06.691Z,101043.53
2023-04-21T20:47:33.975Z,101040.91
2023-04-21T20:50:00.551Z,101052.72
2023-04-21T20:52:27.085Z,101041.44
2023-04-21T20:54:53.548Z,101044.25
2023-04-21T20:57:20.000Z,101043.31
2023-04-21T20:59:46.465Z,101050.44
2023-04-21T21:02:13.052Z,101045.06
2023-04-21T21:04:39.683Z,101051.47
2023-04-21T21:07:06.404Z,101049.59
2023-04-21T21:09:32.874Z,101053.66
2023-04-21T21:11:59.486Z,101057.56
2023-04-21T21:14:25.912Z,101057.03
2023-04-21T21:16:54.461Z,101056.81
2023-04-21T21:19:21.205Z,101054.91
2023-04-21T21:21:47.744Z,101065.25
2023-04-21T21:24:14.152Z,101062.63
2023-04-21T21:26:42.506Z,101058.66
2023-04-21T21:29:09.358Z,101061.53
2023-04-21T21:31:35.796Z,101051.94
2023-04-21T21:34:03.873Z,101060.47
2023-04-21T21:36:31.768Z,101066.22
2023-04-21T21:38:58.189Z,101068.72
2023-04-21T21:41:24.616Z,101063.81
2023-04-21T21:43:51.032Z,101064.53
2023-04-21T21:46:18.637Z,101062.88
2023-04-21T21:48:45.468Z,101060.88
2023-04-21T21:51:12.018Z,101065.28
2023-04-21T21:53:38.429Z,101067.56
2023-04-21T21:56:05.376Z,101064.22
2023-04-21T21:58:32.149Z,101064.84
2023-04-21T22:00:59.283Z,101072.75
2023-04-21T22:03:26.164Z,101074.13
2023-04-21T22:05:52.730Z,101074.81
2023-04-21T22:08:19.128Z,101062.41
2023-04-21T22:10:45.717Z,101066.66
2023-04-21T22:13:12.182Z,101066.75
2023-04-21T22:15:38.889Z,101074.69
2023-04-21T22:18:05.557Z,101073.25
2023-04-21T22:20:32.132Z,101074.38
2023-04-21T22:22:59.179Z,101075.38
2023-04-21T22:25:26.888Z,101082.13
2023-04-21T22:27:54.969Z,101070.13
2023-04-21T22:30:21.479Z,101071.81
2023-04-21T22:32:48.180Z,101071.88
2023-04-21T22:35:14.653Z,101070.28
2023-04-21T22:37:41.832Z,101071.34
2023-04-21T22:40:09.168Z,101074.69
2023-04-21T22:42:35.612Z,101078.63
2023-04-21T22:45:03.979Z,101080.94
2023-04-21T22:47:31.007Z,101079.91
2023-04-21T22:49:57.440Z,101078.94
2023-04-21T22:52:26.529Z,101077.00
2023-04-21T22:54:53.532Z,101079.22
2023-04-21T22:57:21.462Z,101085.44
2023-04-21T22:59:47.991Z,101084.59
2023-04-21T23:02:14.449Z,101078.19
2023-04-21T23:04:40.921Z,101081.91
2023-04-21T23:07:07.700Z,101077.44
2023-04-21T23:09:34.155Z,101083.97
2023-04-21T23:12:01.412Z,101080.19
2023-04-21T23:14:27.867Z,101079.78
2023-04-21T23:16:54.460Z,101083.06
2023-04-21T23:19:20.960Z,101080.25
2023-04-21T23:21:47.498Z,101077.97
2023-04-21T23:24:14.685Z,101080.91
2023-04-21T23:26:41.143Z,101075.22
2023-04-21T23:29:07.572Z,101079.47
2023-04-21T23:31:34.151Z,101074.69
2023-04-21T23:34:00.741Z,101079.19
2023-04-21T23:36:27.267Z,101070.22
2023-04-21T23:38:54.116Z,101072.25
2023-04-21T23:41:21.270Z,101078.03
2023-04-21T23:43:47.746Z,101071.66
2023-04-21T23:46:15.096Z,101073.63
2023-04-21T23:48:41.565Z,101078.47
2023-04-21T23:51:08.083Z,101076.78
2023-04-21T23:53:34.600Z,101071.47
2023-04-21T23:56:01.007Z,101068.72
2023-04-21T23:58:28.077Z,101069.16
